LNI352 WIII-WIEE
Flight info
| Callsign | LNI352 |
|---|---|
| Flight time | 1h 24m |
| Altitude | 32000 |
| Route | GUDBA T6 LEBEG |
| Aircraft | B739/M-SDE2E3FGHIRWXY/LB1 |
Departure
| Time | 2026-05-05 11:19 |
|---|---|
| Airport | Soekarno-Hatta International Airport (WIII) |
Arrival
| Time | 2026-05-05 12:43 |
|---|---|
| Airport | Minangkabau International Airport (WIEE) |
| Time | Latitude | Longitude | Altitude | Speed | Heading |
|---|---|---|---|---|---|
| 2026-05-05 10:46 | -6.12780 | 106.65939 | 37 ft | 0 kts | 221° |
| 2026-05-05 11:07 | -6.12777 | 106.65942 | 37 ft | 2 kts | 221° |
| 2026-05-05 11:07 | -6.12763 | 106.65954 | 36 ft | 3 kts | 221° |
| 2026-05-05 11:08 | -6.12747 | 106.65968 | 37 ft | 3 kts | 221° |
| 2026-05-05 11:08 | -6.12735 | 106.65979 | 37 ft | 3 kts | 218° |
| 2026-05-05 11:08 | -6.12720 | 106.65987 | 36 ft | 3 kts | 176° |
| 2026-05-05 11:08 | -6.12704 | 106.65981 | 36 ft | 3 kts | 137° |
| 2026-05-05 11:09 | -6.12693 | 106.65971 | 36 ft | 1 kts | 130° |
| 2026-05-05 11:09 | -6.12690 | 106.65967 | 37 ft | 0 kts | 130° |
| 2026-05-05 11:10 | -6.12691 | 106.65968 | 37 ft | 0 kts | 130° |
| 2026-05-05 11:10 | -6.12706 | 106.65986 | 37 ft | 7 kts | 130° |
| 2026-05-05 11:10 | -6.12740 | 106.66028 | 35 ft | 8 kts | 128° |
| 2026-05-05 11:11 | -6.12776 | 106.66069 | 37 ft | 8 kts | 139° |
| 2026-05-05 11:11 | -6.12822 | 106.66094 | 35 ft | 7 kts | 158° |
| 2026-05-05 11:11 | -6.12869 | 106.66113 | 37 ft | 7 kts | 159° |
| 2026-05-05 11:11 | -6.12926 | 106.66135 | 37 ft | 12 kts | 159° |
| 2026-05-05 11:12 | -6.13021 | 106.66172 | 36 ft | 17 kts | 158° |
| 2026-05-05 11:12 | -6.13132 | 106.66217 | 37 ft | 12 kts | 158° |
| 2026-05-05 11:12 | -6.13196 | 106.66227 | 35 ft | 9 kts | 201° |
| 2026-05-05 11:12 | -6.13232 | 106.66174 | 37 ft | 9 kts | 248° |
| 2026-05-05 11:13 | -6.13256 | 106.66115 | 37 ft | 10 kts | 248° |
| 2026-05-05 11:13 | -6.13273 | 106.66071 | 37 ft | 12 kts | 248° |
| 2026-05-05 11:13 | -6.13339 | 106.65904 | 37 ft | 26 kts | 248° |
| 2026-05-05 11:13 | -6.13405 | 106.65736 | 37 ft | 25 kts | 248° |
| 2026-05-05 11:14 | -6.13449 | 106.65632 | 37 ft | 24 kts | 246° |
| 2026-05-05 11:14 | -6.13509 | 106.65482 | 37 ft | 23 kts | 248° |
| 2026-05-05 11:14 | -6.13567 | 106.65336 | 37 ft | 22 kts | 248° |
| 2026-05-05 11:14 | -6.13622 | 106.65195 | 37 ft | 21 kts | 249° |
| 2026-05-05 11:15 | -6.13676 | 106.65057 | 37 ft | 21 kts | 248° |
| 2026-05-05 11:15 | -6.13731 | 106.64924 | 36 ft | 20 kts | 248° |
| 2026-05-05 11:15 | -6.13781 | 106.64795 | 37 ft | 20 kts | 249° |
| 2026-05-05 11:15 | -6.13829 | 106.64669 | 37 ft | 19 kts | 249° |
| 2026-05-05 11:16 | -6.13880 | 106.64548 | 37 ft | 18 kts | 247° |
| 2026-05-05 11:16 | -6.13927 | 106.64432 | 37 ft | 18 kts | 248° |
| 2026-05-05 11:16 | -6.13971 | 106.64321 | 37 ft | 15 kts | 248° |
| 2026-05-05 11:16 | -6.14038 | 106.64255 | 38 ft | 14 kts | 179° |
| 2026-05-05 11:17 | -6.14129 | 106.64285 | 38 ft | 14 kts | 159° |
| 2026-05-05 11:17 | -6.14198 | 106.64340 | 38 ft | 11 kts | 123° |
| 2026-05-05 11:17 | -6.14240 | 106.64372 | 39 ft | 6 kts | 130° |
| 2026-05-05 11:17 | -6.14238 | 106.64391 | 39 ft | 0 kts | 68° |
| 2026-05-05 11:18 | -6.14238 | 106.64392 | 39 ft | 0 kts | 68° |
| 2026-05-05 11:19 | -6.14150 | 106.64613 | 36 ft | 73 kts | 68° |
| 2026-05-05 11:19 | -6.13871 | 106.65308 | 36 ft | 139 kts | 68° |
| 2026-05-05 11:19 | -6.13446 | 106.66356 | 221 ft | 174 kts | 69° |
| 2026-05-05 11:19 | -6.13015 | 106.67531 | 868 ft | 180 kts | 68° |
| 2026-05-05 11:20 | -6.12551 | 106.68704 | 1627 ft | 183 kts | 66° |
| 2026-05-05 11:20 | -6.12042 | 106.69935 | 2043 ft | 202 kts | 65° |
| 2026-05-05 11:20 | -6.11471 | 106.71303 | 2322 ft | 220 kts | 67° |
| 2026-05-05 11:20 | -6.11211 | 106.72824 | 2861 ft | 224 kts | 97° |
| 2026-05-05 11:21 | -6.11783 | 106.74268 | 3543 ft | 226 kts | 123° |
| 2026-05-05 11:21 | -6.12923 | 106.75381 | 4131 ft | 233 kts | 143° |
| 2026-05-05 11:21 | -6.14418 | 106.76056 | 4698 ft | 241 kts | 160° |
| 2026-05-05 11:21 | -6.16072 | 106.76466 | 5379 ft | 245 kts | 175° |
| 2026-05-05 11:22 | -6.17688 | 106.76118 | 6075 ft | 250 kts | 208° |
| 2026-05-05 11:22 | -6.19263 | 106.74780 | 6850 ft | 256 kts | 233° |
| 2026-05-05 11:22 | -6.19984 | 106.73161 | 7173 ft | 274 kts | 262° |
| 2026-05-05 11:22 | -6.19912 | 106.71628 | 7325 ft | 289 kts | 287° |
| 2026-05-05 11:23 | -6.19117 | 106.69775 | 7820 ft | 295 kts | 298° |
| 2026-05-05 11:23 | -6.18134 | 106.67956 | 8503 ft | 298 kts | 300° |
| 2026-05-05 11:23 | -6.17102 | 106.66121 | 9190 ft | 302 kts | 300° |
| 2026-05-05 11:23 | -6.16055 | 106.64304 | 9823 ft | 302 kts | 301° |
| 2026-05-05 11:24 | -6.14992 | 106.62451 | 10277 ft | 314 kts | 301° |
| 2026-05-05 11:24 | -6.13884 | 106.60473 | 10409 ft | 335 kts | 300° |
| 2026-05-05 11:24 | -6.12730 | 106.58373 | 10561 ft | 352 kts | 299° |
| 2026-05-05 11:24 | -6.11538 | 106.56167 | 10835 ft | 364 kts | 299° |
| 2026-05-05 11:25 | -6.10311 | 106.53916 | 11337 ft | 369 kts | 299° |
| 2026-05-05 11:25 | -6.09077 | 106.51651 | 11943 ft | 370 kts | 298° |
| 2026-05-05 11:25 | -6.07832 | 106.49383 | 12559 ft | 372 kts | 299° |
| 2026-05-05 11:25 | -6.06575 | 106.47101 | 13117 ft | 374 kts | 299° |
| 2026-05-05 11:26 | -6.05315 | 106.44800 | 13562 ft | 380 kts | 299° |
| 2026-05-05 11:26 | -6.04042 | 106.42467 | 14060 ft | 382 kts | 299° |
| 2026-05-05 11:26 | -6.02733 | 106.40132 | 14599 ft | 384 kts | 300° |
| 2026-05-05 11:26 | -6.01430 | 106.37780 | 15092 ft | 387 kts | 299° |
| 2026-05-05 11:27 | -6.00134 | 106.35397 | 15529 ft | 390 kts | 299° |
| 2026-05-05 11:27 | -5.98829 | 106.32994 | 16000 ft | 393 kts | 299° |
| 2026-05-05 11:27 | -5.97517 | 106.30578 | 16468 ft | 395 kts | 299° |
| 2026-05-05 11:27 | -5.96190 | 106.28142 | 16910 ft | 398 kts | 299° |
| 2026-05-05 11:28 | -5.94856 | 106.25698 | 17329 ft | 401 kts | 299° |
| 2026-05-05 11:28 | -5.93510 | 106.23236 | 17732 ft | 404 kts | 300° |
| 2026-05-05 11:28 | -5.92153 | 106.20758 | 18151 ft | 406 kts | 300° |
| 2026-05-05 11:28 | -5.90789 | 106.18268 | 18568 ft | 408 kts | 300° |
| 2026-05-05 11:29 | -5.89419 | 106.15766 | 18937 ft | 411 kts | 300° |
| 2026-05-05 11:29 | -5.88037 | 106.13243 | 19299 ft | 413 kts | 300° |
| 2026-05-05 11:29 | -5.86647 | 106.10708 | 19659 ft | 416 kts | 300° |
| 2026-05-05 11:29 | -5.85250 | 106.08159 | 19988 ft | 419 kts | 300° |
| 2026-05-05 11:30 | -5.83843 | 106.05592 | 20326 ft | 421 kts | 300° |
| 2026-05-05 11:30 | -5.82426 | 106.03007 | 20670 ft | 423 kts | 300° |
| 2026-05-05 11:30 | -5.81006 | 106.00416 | 20990 ft | 425 kts | 300° |
| 2026-05-05 11:30 | -5.79577 | 105.97810 | 21302 ft | 427 kts | 300° |
| 2026-05-05 11:31 | -5.78141 | 105.95190 | 21601 ft | 429 kts | 300° |
| 2026-05-05 11:31 | -5.76697 | 105.92558 | 21890 ft | 431 kts | 300° |
| 2026-05-05 11:31 | -5.75250 | 105.89921 | 22176 ft | 433 kts | 300° |
| 2026-05-05 11:31 | -5.73793 | 105.87266 | 22461 ft | 435 kts | 300° |
| 2026-05-05 11:32 | -5.72331 | 105.84601 | 22733 ft | 436 kts | 300° |
| 2026-05-05 11:32 | -5.70882 | 105.81959 | 22968 ft | 439 kts | 300° |
| 2026-05-05 11:32 | -5.69405 | 105.79267 | 23231 ft | 441 kts | 300° |
| 2026-05-05 11:32 | -5.67902 | 105.76530 | 23494 ft | 443 kts | 300° |
| 2026-05-05 11:33 | -5.66432 | 105.73854 | 23744 ft | 444 kts | 300° |
| 2026-05-05 11:33 | -5.64940 | 105.71136 | 23955 ft | 446 kts | 300° |
| 2026-05-05 11:33 | -5.63440 | 105.68402 | 24181 ft | 447 kts | 300° |
| 2026-05-05 11:33 | -5.61936 | 105.65663 | 24396 ft | 449 kts | 300° |
| 2026-05-05 11:34 | -5.60426 | 105.62914 | 24603 ft | 451 kts | 300° |
| 2026-05-05 11:34 | -5.58907 | 105.60153 | 24811 ft | 451 kts | 300° |
| 2026-05-05 11:34 | -5.57392 | 105.57387 | 24999 ft | 455 kts | 299° |
| 2026-05-05 11:34 | -5.55859 | 105.54613 | 25299 ft | 453 kts | 304° |
| 2026-05-05 11:35 | -5.54038 | 105.52029 | 25551 ft | 453 kts | 307° |
| 2026-05-05 11:35 | -5.52144 | 105.49491 | 25717 ft | 455 kts | 308° |
| 2026-05-05 11:35 | -5.50227 | 105.46953 | 25865 ft | 458 kts | 308° |
| 2026-05-05 11:35 | -5.48305 | 105.44398 | 26022 ft | 459 kts | 308° |
| 2026-05-05 11:36 | -5.46388 | 105.41827 | 26211 ft | 461 kts | 308° |
| 2026-05-05 11:36 | -5.44478 | 105.39244 | 26420 ft | 461 kts | 307° |
| 2026-05-05 11:36 | -5.42570 | 105.36649 | 26618 ft | 462 kts | 307° |
| 2026-05-05 11:36 | -5.40666 | 105.34051 | 26781 ft | 463 kts | 307° |
| 2026-05-05 11:37 | -5.38754 | 105.31439 | 26937 ft | 465 kts | 307° |
| 2026-05-05 11:37 | -5.36839 | 105.28820 | 27096 ft | 466 kts | 307° |
| 2026-05-05 11:37 | -5.34921 | 105.26197 | 27277 ft | 467 kts | 307° |
| 2026-05-05 11:37 | -5.32997 | 105.23566 | 27441 ft | 469 kts | 307° |
| 2026-05-05 11:38 | -5.31075 | 105.20915 | 27626 ft | 470 kts | 307° |
| 2026-05-05 11:38 | -5.29146 | 105.18272 | 27806 ft | 470 kts | 307° |
| 2026-05-05 11:38 | -5.27203 | 105.15626 | 27968 ft | 471 kts | 307° |
| 2026-05-05 11:38 | -5.25257 | 105.12983 | 28115 ft | 471 kts | 307° |
| 2026-05-05 11:39 | -5.23308 | 105.10332 | 28228 ft | 473 kts | 307° |
| 2026-05-05 11:39 | -5.21352 | 105.07669 | 28362 ft | 474 kts | 307° |
| 2026-05-05 11:39 | -5.19392 | 105.05000 | 28499 ft | 475 kts | 307° |
| 2026-05-05 11:39 | -5.17434 | 105.02329 | 28645 ft | 476 kts | 307° |
| 2026-05-05 11:40 | -5.15470 | 104.99651 | 28761 ft | 477 kts | 307° |
| 2026-05-05 11:40 | -5.13502 | 104.96967 | 28888 ft | 478 kts | 307° |
| 2026-05-05 11:40 | -5.11534 | 104.94282 | 29015 ft | 479 kts | 307° |
| 2026-05-05 11:40 | -5.09555 | 104.91584 | 29144 ft | 480 kts | 307° |
| 2026-05-05 11:41 | -5.07575 | 104.88884 | 29270 ft | 481 kts | 307° |
| 2026-05-05 11:41 | -5.05593 | 104.86182 | 29422 ft | 481 kts | 307° |
| 2026-05-05 11:41 | -5.03614 | 104.83484 | 29644 ft | 479 kts | 307° |
| 2026-05-05 11:41 | -5.01642 | 104.80795 | 29867 ft | 478 kts | 307° |
| 2026-05-05 11:42 | -4.99673 | 104.78111 | 30059 ft | 478 kts | 307° |
| 2026-05-05 11:42 | -4.97701 | 104.75421 | 30232 ft | 478 kts | 307° |
| 2026-05-05 11:42 | -4.95730 | 104.72736 | 30446 ft | 478 kts | 307° |
| 2026-05-05 11:42 | -4.93760 | 104.70053 | 30674 ft | 477 kts | 307° |
| 2026-05-05 11:43 | -4.91795 | 104.67381 | 30884 ft | 476 kts | 307° |
| 2026-05-05 11:43 | -4.89831 | 104.64706 | 31098 ft | 476 kts | 307° |
| 2026-05-05 11:43 | -4.87867 | 104.62031 | 31277 ft | 477 kts | 307° |
| 2026-05-05 11:43 | -4.85899 | 104.59349 | 31470 ft | 477 kts | 307° |
| 2026-05-05 11:44 | -4.83934 | 104.56672 | 31706 ft | 476 kts | 307° |
| 2026-05-05 11:44 | -4.81974 | 104.54003 | 31871 ft | 475 kts | 307° |
| 2026-05-05 11:44 | -4.80012 | 104.51331 | 31862 ft | 476 kts | 307° |
| 2026-05-05 11:45 | -4.76089 | 104.45988 | 31860 ft | 474 kts | 307° |
| 2026-05-05 11:45 | -4.72190 | 104.40674 | 31861 ft | 473 kts | 307° |
| 2026-05-05 11:46 | -4.68294 | 104.35364 | 31865 ft | 472 kts | 307° |
| 2026-05-05 11:46 | -4.64405 | 104.30066 | 31857 ft | 472 kts | 307° |
| 2026-05-05 11:47 | -4.60509 | 104.24760 | 31853 ft | 473 kts | 307° |
| 2026-05-05 11:47 | -4.56609 | 104.19449 | 31854 ft | 474 kts | 307° |
| 2026-05-05 11:48 | -4.50736 | 104.11454 | 31856 ft | 475 kts | 307° |
| 2026-05-05 11:48 | -4.46814 | 104.06116 | 31855 ft | 476 kts | 307° |
| 2026-05-05 11:49 | -4.42884 | 104.00767 | 31851 ft | 477 kts | 307° |
| 2026-05-05 11:49 | -4.38949 | 103.95413 | 31846 ft | 477 kts | 307° |
| 2026-05-05 11:50 | -4.35016 | 103.90063 | 31846 ft | 477 kts | 307° |
| 2026-05-05 11:50 | -4.31078 | 103.84709 | 31852 ft | 477 kts | 307° |
| 2026-05-05 11:51 | -4.27141 | 103.79355 | 31856 ft | 477 kts | 307° |
| 2026-05-05 11:51 | -4.23227 | 103.74034 | 31852 ft | 477 kts | 307° |
| 2026-05-05 11:52 | -4.19296 | 103.68691 | 31850 ft | 477 kts | 307° |
| 2026-05-05 11:52 | -4.15364 | 103.63346 | 31843 ft | 476 kts | 307° |
| 2026-05-05 11:53 | -4.11435 | 103.58010 | 31849 ft | 476 kts | 307° |
| 2026-05-05 11:53 | -4.07511 | 103.52679 | 31853 ft | 476 kts | 307° |
| 2026-05-05 11:54 | -4.03590 | 103.47353 | 31862 ft | 475 kts | 307° |
| 2026-05-05 11:54 | -3.99669 | 103.42029 | 31857 ft | 475 kts | 307° |
| 2026-05-05 11:55 | -3.95751 | 103.36710 | 31855 ft | 475 kts | 307° |
| 2026-05-05 11:55 | -3.91832 | 103.31390 | 31850 ft | 474 kts | 307° |
| 2026-05-05 11:56 | -3.87915 | 103.26071 | 31851 ft | 474 kts | 307° |
| 2026-05-05 11:56 | -3.83992 | 103.20750 | 31856 ft | 475 kts | 307° |
| 2026-05-05 11:57 | -3.80061 | 103.15418 | 31849 ft | 476 kts | 307° |
| 2026-05-05 11:57 | -3.76129 | 103.10085 | 31857 ft | 476 kts | 307° |
| 2026-05-05 11:58 | -3.72195 | 103.04748 | 31849 ft | 476 kts | 307° |
| 2026-05-05 11:58 | -3.68263 | 102.99416 | 31852 ft | 476 kts | 307° |
| 2026-05-05 11:59 | -3.64325 | 102.94078 | 31843 ft | 476 kts | 307° |
| 2026-05-05 11:59 | -3.60390 | 102.88744 | 31835 ft | 476 kts | 307° |
| 2026-05-05 12:00 | -3.56455 | 102.83411 | 31852 ft | 476 kts | 307° |
| 2026-05-05 12:00 | -3.52523 | 102.78082 | 31834 ft | 475 kts | 307° |
| 2026-05-05 12:01 | -3.48593 | 102.72758 | 31849 ft | 475 kts | 307° |
| 2026-05-05 12:01 | -3.44668 | 102.67442 | 31844 ft | 475 kts | 307° |
| 2026-05-05 12:02 | -3.40742 | 102.62125 | 31837 ft | 475 kts | 307° |
| 2026-05-05 12:02 | -3.36840 | 102.56842 | 31850 ft | 475 kts | 307° |
| 2026-05-05 12:03 | -3.32921 | 102.51535 | 31849 ft | 474 kts | 307° |
| 2026-05-05 12:03 | -3.28996 | 102.46221 | 31836 ft | 475 kts | 307° |
| 2026-05-05 12:04 | -3.25074 | 102.40911 | 31837 ft | 474 kts | 307° |
| 2026-05-05 12:04 | -3.21811 | 102.36495 | 31837 ft | 474 kts | 307° |
| 2026-05-05 12:05 | -3.17888 | 102.31188 | 31843 ft | 475 kts | 307° |
| 2026-05-05 12:05 | -3.13964 | 102.25877 | 31834 ft | 474 kts | 307° |
| 2026-05-05 12:06 | -3.10043 | 102.20573 | 31837 ft | 474 kts | 307° |
| 2026-05-05 12:06 | -3.06123 | 102.15269 | 31850 ft | 474 kts | 307° |
| 2026-05-05 12:07 | -3.02204 | 102.09970 | 31847 ft | 474 kts | 307° |
| 2026-05-05 12:07 | -2.98283 | 102.04669 | 31852 ft | 473 kts | 307° |
| 2026-05-05 12:08 | -2.94368 | 101.99376 | 31836 ft | 473 kts | 307° |
| 2026-05-05 12:08 | -2.90457 | 101.94089 | 31834 ft | 473 kts | 307° |
| 2026-05-05 12:09 | -2.86546 | 101.88799 | 31845 ft | 473 kts | 307° |
| 2026-05-05 12:09 | -2.82632 | 101.83510 | 31836 ft | 473 kts | 307° |
| 2026-05-05 12:10 | -2.78717 | 101.78219 | 31851 ft | 473 kts | 307° |
| 2026-05-05 12:10 | -2.74794 | 101.72918 | 31832 ft | 474 kts | 307° |
| 2026-05-05 12:11 | -2.70875 | 101.67622 | 31831 ft | 474 kts | 307° |
| 2026-05-05 12:11 | -2.66959 | 101.62330 | 31836 ft | 474 kts | 307° |
| 2026-05-05 12:12 | -2.63038 | 101.57036 | 31832 ft | 473 kts | 307° |
| 2026-05-05 12:12 | -2.59123 | 101.51757 | 31834 ft | 473 kts | 307° |
| 2026-05-05 12:13 | -2.55205 | 101.46470 | 31832 ft | 473 kts | 307° |
| 2026-05-05 12:13 | -2.51292 | 101.41189 | 31829 ft | 473 kts | 307° |
| 2026-05-05 12:14 | -2.47376 | 101.35905 | 31820 ft | 473 kts | 307° |
| 2026-05-05 12:14 | -2.43455 | 101.30616 | 31813 ft | 473 kts | 307° |
| 2026-05-05 12:15 | -2.39537 | 101.25332 | 31816 ft | 473 kts | 307° |
| 2026-05-05 12:15 | -2.35617 | 101.20046 | 31815 ft | 473 kts | 307° |
| 2026-05-05 12:16 | -2.31697 | 101.14758 | 31816 ft | 473 kts | 307° |
| 2026-05-05 12:16 | -2.27786 | 101.09482 | 31824 ft | 472 kts | 307° |
| 2026-05-05 12:17 | -2.23888 | 101.04227 | 31733 ft | 467 kts | 307° |
| 2026-05-05 12:17 | -2.21958 | 101.01626 | 31263 ft | 463 kts | 307° |
| 2026-05-05 12:17 | -2.20051 | 100.99055 | 30751 ft | 458 kts | 307° |
| 2026-05-05 12:18 | -2.18175 | 100.96526 | 30210 ft | 447 kts | 307° |
| 2026-05-05 12:18 | -2.16348 | 100.94062 | 29701 ft | 436 kts | 307° |
| 2026-05-05 12:18 | -2.14562 | 100.91656 | 29185 ft | 425 kts | 307° |
| 2026-05-05 12:18 | -2.12821 | 100.89309 | 28696 ft | 416 kts | 307° |
| 2026-05-05 12:19 | -2.11116 | 100.87011 | 28201 ft | 407 kts | 307° |
| 2026-05-05 12:19 | -2.09451 | 100.84766 | 27717 ft | 398 kts | 307° |
| 2026-05-05 12:19 | -2.07818 | 100.82564 | 27248 ft | 390 kts | 307° |
| 2026-05-05 12:19 | -2.06222 | 100.80413 | 26781 ft | 382 kts | 307° |
| 2026-05-05 12:20 | -2.04653 | 100.78298 | 26319 ft | 375 kts | 308° |
| 2026-05-05 12:20 | -2.03115 | 100.76226 | 25876 ft | 367 kts | 308° |
| 2026-05-05 12:20 | -2.01609 | 100.74196 | 25433 ft | 361 kts | 308° |
| 2026-05-05 12:20 | -2.00178 | 100.72268 | 25019 ft | 355 kts | 308° |
| 2026-05-05 12:21 | -1.98737 | 100.70325 | 24597 ft | 350 kts | 308° |
| 2026-05-05 12:21 | -1.97293 | 100.68377 | 24187 ft | 348 kts | 308° |
| 2026-05-05 12:21 | -1.95842 | 100.66422 | 23778 ft | 352 kts | 308° |
| 2026-05-05 12:21 | -1.94375 | 100.64448 | 23357 ft | 355 kts | 308° |
| 2026-05-05 12:22 | -1.92903 | 100.62466 | 22918 ft | 354 kts | 308° |
| 2026-05-05 12:22 | -1.91440 | 100.60498 | 22479 ft | 351 kts | 308° |
| 2026-05-05 12:22 | -1.89988 | 100.58545 | 22058 ft | 349 kts | 309° |
| 2026-05-05 12:22 | -1.88236 | 100.56924 | 21597 ft | 342 kts | 333° |
| 2026-05-05 12:23 | -1.86073 | 100.55982 | 20988 ft | 341 kts | 345° |
| 2026-05-05 12:23 | -1.83795 | 100.55342 | 20510 ft | 337 kts | 347° |
| 2026-05-05 12:23 | -1.81573 | 100.54787 | 20321 ft | 323 kts | 348° |
| 2026-05-05 12:23 | -1.79410 | 100.54257 | 19949 ft | 317 kts | 348° |
| 2026-05-05 12:24 | -1.77277 | 100.53727 | 19566 ft | 316 kts | 348° |
| 2026-05-05 12:24 | -1.75141 | 100.53189 | 19134 ft | 317 kts | 347° |
| 2026-05-05 12:24 | -1.73011 | 100.52643 | 18685 ft | 314 kts | 347° |
| 2026-05-05 12:24 | -1.70921 | 100.52101 | 18226 ft | 310 kts | 347° |
| 2026-05-05 12:25 | -1.68875 | 100.51566 | 18024 ft | 297 kts | 347° |
| 2026-05-05 12:25 | -1.66877 | 100.51042 | 17486 ft | 296 kts | 347° |
| 2026-05-05 12:25 | -1.64915 | 100.50527 | 17161 ft | 289 kts | 347° |
| 2026-05-05 12:25 | -1.62987 | 100.50019 | 16786 ft | 283 kts | 347° |
| 2026-05-05 12:26 | -1.61097 | 100.49522 | 16391 ft | 281 kts | 347° |
| 2026-05-05 12:26 | -1.59220 | 100.49028 | 16026 ft | 277 kts | 347° |
| 2026-05-05 12:26 | -1.57376 | 100.48542 | 15781 ft | 271 kts | 347° |
| 2026-05-05 12:26 | -1.55552 | 100.48062 | 15521 ft | 271 kts | 346° |
| 2026-05-05 12:27 | -1.53721 | 100.47581 | 15216 ft | 275 kts | 346° |
| 2026-05-05 12:27 | -1.51853 | 100.47089 | 14802 ft | 280 kts | 346° |
| 2026-05-05 12:27 | -1.49952 | 100.46589 | 14362 ft | 279 kts | 346° |
| 2026-05-05 12:27 | -1.48100 | 100.46100 | 14014 ft | 274 kts | 346° |
| 2026-05-05 12:28 | -1.46280 | 100.45620 | 13676 ft | 267 kts | 346° |
| 2026-05-05 12:28 | -1.44491 | 100.45148 | 13346 ft | 262 kts | 346° |
| 2026-05-05 12:28 | -1.42746 | 100.44688 | 13087 ft | 258 kts | 346° |
| 2026-05-05 12:28 | -1.41000 | 100.44227 | 12852 ft | 260 kts | 346° |
| 2026-05-05 12:29 | -1.39237 | 100.43763 | 12633 ft | 266 kts | 346° |
| 2026-05-05 12:29 | -1.37431 | 100.43287 | 12390 ft | 269 kts | 346° |
| 2026-05-05 12:29 | -1.35625 | 100.42811 | 12140 ft | 268 kts | 345° |
| 2026-05-05 12:29 | -1.33834 | 100.42339 | 11881 ft | 264 kts | 345° |
| 2026-05-05 12:30 | -1.32066 | 100.41873 | 11618 ft | 261 kts | 345° |
| 2026-05-05 12:30 | -1.30324 | 100.41414 | 11357 ft | 257 kts | 345° |
| 2026-05-05 12:30 | -1.28607 | 100.40961 | 11126 ft | 255 kts | 345° |
| 2026-05-05 12:30 | -1.26899 | 100.40511 | 10864 ft | 253 kts | 345° |
| 2026-05-05 12:31 | -1.25226 | 100.40070 | 10610 ft | 251 kts | 345° |
| 2026-05-05 12:31 | -1.23521 | 100.39621 | 10358 ft | 249 kts | 345° |
| 2026-05-05 12:31 | -1.21848 | 100.39180 | 10108 ft | 248 kts | 345° |
| 2026-05-05 12:31 | -1.20179 | 100.38738 | 9854 ft | 248 kts | 344° |
| 2026-05-05 12:32 | -1.18661 | 100.37982 | 9570 ft | 246 kts | 315° |
| 2026-05-05 12:32 | -1.17510 | 100.36773 | 9362 ft | 244 kts | 313° |
| 2026-05-05 12:32 | -1.16349 | 100.35530 | 9119 ft | 246 kts | 313° |
| 2026-05-05 12:32 | -1.15172 | 100.34274 | 8870 ft | 248 kts | 313° |
| 2026-05-05 12:33 | -1.13988 | 100.33017 | 8628 ft | 249 kts | 313° |
| 2026-05-05 12:33 | -1.12802 | 100.31758 | 8380 ft | 249 kts | 313° |
| 2026-05-05 12:33 | -1.11611 | 100.30498 | 8132 ft | 249 kts | 313° |
| 2026-05-05 12:33 | -1.10428 | 100.29246 | 7875 ft | 246 kts | 313° |
| 2026-05-05 12:34 | -1.09261 | 100.28012 | 7619 ft | 243 kts | 313° |
| 2026-05-05 12:34 | -1.08109 | 100.26794 | 7362 ft | 240 kts | 313° |
| 2026-05-05 12:34 | -1.06967 | 100.25589 | 7098 ft | 238 kts | 313° |
| 2026-05-05 12:34 | -1.05821 | 100.24378 | 6718 ft | 241 kts | 313° |
| 2026-05-05 12:35 | -1.04676 | 100.23170 | 6340 ft | 238 kts | 313° |
| 2026-05-05 12:35 | -1.03542 | 100.21974 | 5965 ft | 236 kts | 313° |
| 2026-05-05 12:35 | -1.02375 | 100.20844 | 5568 ft | 233 kts | 327° |
| 2026-05-05 12:35 | -1.00857 | 100.20392 | 5181 ft | 229 kts | 2° |
| 2026-05-05 12:36 | -0.99362 | 100.20848 | 4817 ft | 225 kts | 35° |
| 2026-05-05 12:36 | -0.98369 | 100.21997 | 4481 ft | 218 kts | 66° |
| 2026-05-05 12:36 | -0.98057 | 100.23441 | 4119 ft | 211 kts | 91° |
| 2026-05-05 12:36 | -0.98239 | 100.24867 | 3766 ft | 204 kts | 98° |
| 2026-05-05 12:37 | -0.98458 | 100.26248 | 3369 ft | 199 kts | 98° |
| 2026-05-05 12:37 | -0.98670 | 100.27602 | 2983 ft | 195 kts | 98° |
| 2026-05-05 12:37 | -0.98878 | 100.28935 | 2613 ft | 194 kts | 98° |
| 2026-05-05 12:37 | -0.99084 | 100.30253 | 2330 ft | 186 kts | 98° |
| 2026-05-05 12:38 | -0.99177 | 100.31523 | 2113 ft | 184 kts | 84° |
| 2026-05-05 12:38 | -0.99012 | 100.32797 | 2058 ft | 189 kts | 82° |
| 2026-05-05 12:38 | -0.98758 | 100.34096 | 2009 ft | 192 kts | 68° |
| 2026-05-05 12:38 | -0.98009 | 100.35157 | 2003 ft | 185 kts | 41° |
| 2026-05-05 12:39 | -0.96896 | 100.35759 | 2001 ft | 185 kts | 13° |
| 2026-05-05 12:39 | -0.95623 | 100.35729 | 1997 ft | 185 kts | 339° |
| 2026-05-05 12:39 | -0.94440 | 100.35257 | 2007 ft | 187 kts | 339° |
| 2026-05-05 12:39 | -0.93232 | 100.34768 | 2015 ft | 188 kts | 337° |
| 2026-05-05 12:40 | -0.92050 | 100.34254 | 1993 ft | 180 kts | 336° |
| 2026-05-05 12:40 | -0.90931 | 100.33749 | 1987 ft | 175 kts | 335° |
| 2026-05-05 12:40 | -0.89843 | 100.33249 | 2037 ft | 167 kts | 335° |
| 2026-05-05 12:40 | -0.88809 | 100.32770 | 1994 ft | 158 kts | 335° |
| 2026-05-05 12:41 | -0.87806 | 100.32311 | 2004 ft | 159 kts | 336° |
| 2026-05-05 12:41 | -0.86803 | 100.31850 | 1841 ft | 158 kts | 335° |
| 2026-05-05 12:41 | -0.85806 | 100.31387 | 1538 ft | 159 kts | 335° |
| 2026-05-05 12:41 | -0.84817 | 100.30927 | 1192 ft | 155 kts | 335° |
| 2026-05-05 12:42 | -0.83840 | 100.30472 | 1015 ft | 156 kts | 335° |
| 2026-05-05 12:42 | -0.82856 | 100.29998 | 698 ft | 157 kts | 334° |
| 2026-05-05 12:42 | -0.81878 | 100.29549 | 505 ft | 151 kts | 335° |
| 2026-05-05 12:42 | -0.80938 | 100.29116 | 296 ft | 147 kts | 335° |
| 2026-05-05 12:43 | -0.79991 | 100.28681 | 121 ft | 152 kts | 335° |
| 2026-05-05 12:43 | -0.79053 | 100.28245 | 31 ft | 140 kts | 335° |
| 2026-05-05 12:43 | -0.78295 | 100.27894 | 24 ft | 99 kts | 334° |
| 2026-05-05 12:43 | -0.77959 | 100.27737 | 27 ft | 40 kts | 335° |
| 2026-05-05 12:44 | -0.77737 | 100.27635 | 26 ft | 29 kts | 340° |
| 2026-05-05 12:44 | -0.77643 | 100.27617 | 27 ft | 8 kts | 304° |
| 2026-05-05 12:44 | -0.77656 | 100.27599 | 28 ft | 4 kts | 165° |
| 2026-05-05 12:44 | -0.77727 | 100.27632 | 27 ft | 18 kts | 155° |
| 2026-05-05 12:45 | -0.77862 | 100.27695 | 29 ft | 22 kts | 155° |
| 2026-05-05 12:45 | -0.78005 | 100.27762 | 25 ft | 25 kts | 155° |
| 2026-05-05 12:45 | -0.78171 | 100.27840 | 22 ft | 27 kts | 156° |
| 2026-05-05 12:45 | -0.78334 | 100.27914 | 24 ft | 25 kts | 155° |
| 2026-05-05 12:46 | -0.78482 | 100.27982 | 23 ft | 20 kts | 155° |
| 2026-05-05 12:46 | -0.78570 | 100.28035 | 26 ft | 13 kts | 118° |
| 2026-05-05 12:46 | -0.78554 | 100.28123 | 25 ft | 14 kts | 65° |
| 2026-05-05 12:46 | -0.78512 | 100.28215 | 25 ft | 15 kts | 65° |
| 2026-05-05 12:47 | -0.78485 | 100.28294 | 23 ft | 10 kts | 98° |
| 2026-05-05 12:47 | -0.78537 | 100.28338 | 23 ft | 10 kts | 155° |
| 2026-05-05 12:47 | -0.78600 | 100.28367 | 24 ft | 10 kts | 155° |
| 2026-05-05 12:47 | -0.78654 | 100.28393 | 23 ft | 7 kts | 145° |
| 2026-05-05 12:48 | -0.78656 | 100.28435 | 23 ft | 6 kts | 68° |
| 2026-05-05 12:48 | -0.78642 | 100.28465 | 24 ft | 4 kts | 65° |
| 2026-05-05 12:48 | -0.78633 | 100.28484 | 26 ft | 1 kts | 65° |
| 2026-05-05 12:48 | -0.78631 | 100.28488 | 23 ft | 0 kts | 65° |